sensor_id;sensor_type;location;lat;lon;timestamp;pressure;altitude;pressure_sealevel;temperature;humidity
51439;BME280;38816;51.142;-0.974;2023-01-25T00:01:52;102292.44;;;-4.46;100.00
51439;BME280;38816;51.142;-0.974;2023-01-25T00:04:19;102295.38;;;-4.50;100.00
51439;BME280;38816;51.142;-0.974;2023-01-25T00:06:44;102290.00;;;-4.53;100.00
51439;BME280;38816;51.142;-0.974;2023-01-25T00:09:10;102281.97;;;-4.57;100.00
51439;BME280;38816;51.142;-0.974;2023-01-25T00:11:36;102292.19;;;-4.56;100.00
51439;BME280;38816;51.142;-0.974;2023-01-25T00:14:02;102281.88;;;-4.66;100.00
51439;BME280;38816;51.142;-0.974;2023-01-25T00:16:28;102295.81;;;-4.61;100.00
51439;BME280;38816;51.142;-0.974;2023-01-25T00:18:53;102293.88;;;-4.64;100.00
51439;BME280;38816;51.142;-0.974;2023-01-25T00:21:21;102282.78;;;-4.73;100.00
51439;BME280;38816;51.142;-0.974;2023-01-25T00:23:47;102297.31;;;-4.70;100.00
51439;BME280;38816;51.142;-0.974;2023-01-25T00:26:13;102288.25;;;-4.84;100.00
51439;BME280;38816;51.142;-0.974;2023-01-25T00:28:38;102288.09;;;-4.86;100.00
51439;BME280;38816;51.142;-0.974;2023-01-25T00:31:05;102277.97;;;-5.01;100.00
51439;BME280;38816;51.142;-0.974;2023-01-25T00:38:46;102287.00;;;-5.11;100.00
51439;BME280;38816;51.142;-0.974;2023-01-25T00:41:12;102268.56;;;-5.18;100.00
51439;BME280;38816;51.142;-0.974;2023-01-25T00:43:37;102285.38;;;-5.10;100.00
51439;BME280;38816;51.142;-0.974;2023-01-25T00:46:03;102281.97;;;-5.11;100.00
51439;BME280;38816;51.142;-0.974;2023-01-25T00:48:31;102264.88;;;-5.22;100.00
51439;BME280;38816;51.142;-0.974;2023-01-25T00:51:00;102267.19;;;-5.23;100.00
51439;BME280;38816;51.142;-0.974;2023-01-25T00:53:26;102276.66;;;-5.21;100.00
51439;BME280;38816;51.142;-0.974;2023-01-25T00:55:51;102268.84;;;-5.31;100.00
51439;BME280;38816;51.142;-0.974;2023-01-25T00:58:17;102278.88;;;-5.31;100.00
51439;BME280;38816;51.142;-0.974;2023-01-25T01:00:42;102280.31;;;-5.33;100.00
51439;BME280;38816;51.142;-0.974;2023-01-25T01:03:08;102284.59;;;-5.32;100.00
51439;BME280;38816;51.142;-0.974;2023-01-25T01:05:33;102271.22;;;-5.40;100.00
51439;BME280;38816;51.142;-0.974;2023-01-25T01:08:00;102273.88;;;-5.38;100.00
51439;BME280;38816;51.142;-0.974;2023-01-25T01:10:26;102278.31;;;-5.28;100.00
51439;BME280;38816;51.142;-0.974;2023-01-25T01:12:51;102266.50;;;-5.29;100.00
51439;BME280;38816;51.142;-0.974;2023-01-25T01:15:16;102267.19;;;-5.23;100.00
51439;BME280;38816;51.142;-0.974;2023-01-25T01:17:42;102255.72;;;-5.21;100.00
51439;BME280;38816;51.142;-0.974;2023-01-25T01:20:08;102274.03;;;-4.99;100.00
51439;BME280;38816;51.142;-0.974;2023-01-25T01:22:33;102271.09;;;-4.88;100.00
51439;BME280;38816;51.142;-0.974;2023-01-25T01:24:59;102255.66;;;-4.84;100.00
51439;BME280;38816;51.142;-0.974;2023-01-25T01:27:24;102248.19;;;-4.68;100.00
51439;BME280;38816;51.142;-0.974;2023-01-25T01:29:49;102246.28;;;-4.55;100.00
51439;BME280;38816;51.142;-0.974;2023-01-25T01:32:15;102263.34;;;-4.37;100.00
51439;BME280;38816;51.142;-0.974;2023-01-25T01:34:40;102240.31;;;-4.33;100.00
51439;BME280;38816;51.142;-0.974;2023-01-25T01:37:06;102239.88;;;-4.21;100.00
51439;BME280;38816;51.142;-0.974;2023-01-25T01:39:31;102232.59;;;-4.11;100.00
51439;BME280;38816;51.142;-0.974;2023-01-25T01:41:57;102236.81;;;-4.03;100.00
51439;BME280;38816;51.142;-0.974;2023-01-25T01:44:42;102233.25;;;-3.89;100.00
51439;BME280;38816;51.142;-0.974;2023-01-25T01:47:23;102235.28;;;-3.78;100.00
51439;BME280;38816;51.142;-0.974;2023-01-25T01:49:56;102237.16;;;-3.68;100.00
51439;BME280;38816;51.142;-0.974;2023-01-25T01:52:27;102243.13;;;-3.59;100.00
51439;BME280;38816;51.142;-0.974;2023-01-25T01:55:04;102245.53;;;-3.52;100.00
51439;BME280;38816;51.142;-0.974;2023-01-25T01:57:47;102223.03;;;-3.59;100.00
51439;BME280;38816;51.142;-0.974;2023-01-25T02:00:17;102244.16;;;-3.41;100.00
51439;BME280;38816;51.142;-0.974;2023-01-25T02:02:46;102246.28;;;-3.37;100.00
51439;BME280;38816;51.142;-0.974;2023-01-25T02:05:19;102232.63;;;-3.39;100.00
51439;BME280;38816;51.142;-0.974;2023-01-25T02:07:51;102245.41;;;-3.29;100.00
51439;BME280;38816;51.142;-0.974;2023-01-25T02:10:19;102238.66;;;-3.21;100.00
51439;BME280;38816;51.142;-0.974;2023-01-25T02:12:45;102249.94;;;-3.18;100.00
51439;BME280;38816;51.142;-0.974;2023-01-25T02:15:12;102235.41;;;-3.20;100.00
51439;BME280;38816;51.142;-0.974;2023-01-25T02:17:38;102239.28;;;-3.15;100.00
51439;BME280;38816;51.142;-0.974;2023-01-25T02:25:15;102251.56;;;-2.94;100.00
51439;BME280;38816;51.142;-0.974;2023-01-25T02:27:47;102234.38;;;-2.98;100.00
51439;BME280;38816;51.142;-0.974;2023-01-25T02:30:15;102244.94;;;-2.85;100.00
51439;BME280;38816;51.142;-0.974;2023-01-25T02:32:40;102228.06;;;-2.86;100.00
51439;BME280;38816;51.142;-0.974;2023-01-25T02:35:06;102247.50;;;-2.76;100.00
51439;BME280;38816;51.142;-0.974;2023-01-25T02:37:32;102249.75;;;-2.70;100.00
51439;BME280;38816;51.142;-0.974;2023-01-25T02:39:57;102241.16;;;-2.72;100.00
51439;BME280;38816;51.142;-0.974;2023-01-25T02:42:23;102234.66;;;-2.70;100.00
51439;BME280;38816;51.142;-0.974;2023-01-25T02:44:49;102242.09;;;-2.63;100.00
51439;BME280;38816;51.142;-0.974;2023-01-25T02:47:15;102227.31;;;-2.60;100.00
51439;BME280;38816;51.142;-0.974;2023-01-25T02:49:40;102240.66;;;-2.52;100.00
51439;BME280;38816;51.142;-0.974;2023-01-25T02:52:06;102238.72;;;-2.55;100.00
51439;BME280;38816;51.142;-0.974;2023-01-25T02:54:31;102232.63;;;-2.57;100.00
51439;BME280;38816;51.142;-0.974;2023-01-25T02:56:57;102230.72;;;-2.60;100.00
51439;BME280;38816;51.142;-0.974;2023-01-25T02:59:22;102244.66;;;-2.55;100.00
51439;BME280;38816;51.142;-0.974;2023-01-25T03:01:48;102230.84;;;-2.58;100.00
51439;BME280;38816;51.142;-0.974;2023-01-25T03:04:14;102240.66;;;-2.52;100.00
51439;BME280;38816;51.142;-0.974;2023-01-25T03:06:40;102216.50;;;-2.59;100.00
51439;BME280;38816;51.142;-0.974;2023-01-25T03:09:07;102232.53;;;-2.50;100.00
51439;BME280;38816;51.142;-0.974;2023-01-25T03:11:33;102223.19;;;-2.51;100.00
51439;BME280;38816;51.142;-0.974;2023-01-25T03:13:59;102234.63;;;-2.46;100.00
51439;BME280;38816;51.142;-0.974;2023-01-25T03:16:25;102236.72;;;-2.42;100.00
51439;BME280;38816;51.142;-0.974;2023-01-25T03:18:52;102231.25;;;-2.38;100.00
51439;BME280;38816;51.142;-0.974;2023-01-25T03:21:20;102233.16;;;-2.35;100.00
51439;BME280;38816;51.142;-0.974;2023-01-25T03:23:46;102214.50;;;-2.37;100.00
51439;BME280;38816;51.142;-0.974;2023-01-25T03:26:15;102224.88;;;-2.25;100.00
51439;BME280;38816;51.142;-0.974;2023-01-25T03:28:41;102217.31;;;-2.25;100.00
51439;BME280;38816;51.142;-0.974;2023-01-25T03:31:09;102213.03;;;-2.26;100.00
51439;BME280;38816;51.142;-0.974;2023-01-25T03:33:35;102223.13;;;-2.18;100.00
51439;BME280;38816;51.142;-0.974;2023-01-25T03:36:01;102212.16;;;-2.18;100.00
51439;BME280;38816;51.142;-0.974;2023-01-25T03:38:27;102223.16;;;-2.09;100.00
51439;BME280;38816;51.142;-0.974;2023-01-25T03:40:53;102203.28;;;-2.15;100.00
51439;BME280;38816;51.142;-0.974;2023-01-25T03:43:18;102212.31;;;-2.08;100.00
51439;BME280;38816;51.142;-0.974;2023-01-25T03:45:44;102203.75;;;-2.10;100.00
51439;BME280;38816;51.142;-0.974;2023-01-25T03:48:09;102214.41;;;-2.04;100.00
51439;BME280;38816;51.142;-0.974;2023-01-25T03:50:35;102211.59;;;-1.98;100.00
51439;BME280;38816;51.142;-0.974;2023-01-25T03:53:00;102205.97;;;-1.96;100.00
51439;BME280;38816;51.142;-0.974;2023-01-25T03:55:32;102197.22;;;-1.91;100.00
51439;BME280;38816;51.142;-0.974;2023-01-25T03:57:57;102203.91;;;-1.83;100.00
51439;BME280;38816;51.142;-0.974;2023-01-25T04:00:23;102194.59;;;-1.84;100.00
51439;BME280;38816;51.142;-0.974;2023-01-25T04:02:48;102208.06;;;-1.74;100.00
51439;BME280;38816;51.142;-0.974;2023-01-25T04:05:13;102191.63;;;-1.80;100.00
51439;BME280;38816;51.142;-0.974;2023-01-25T04:07:39;102203.03;;;-1.74;100.00
51439;BME280;38816;51.142;-0.974;2023-01-25T04:10:06;102201.97;;;-1.76;100.00
51439;BME280;38816;51.142;-0.974;2023-01-25T04:12:32;102201.25;;;-1.75;100.00
51439;BME280;38816;51.142;-0.974;2023-01-25T04:14:57;102195.75;;;-1.71;100.00
51439;BME280;38816;51.142;-0.974;2023-01-25T04:17:22;102192.66;;;-1.69;100.00
51439;BME280;38816;51.142;-0.974;2023-01-25T04:19:48;102190.44;;;-1.66;100.00
51439;BME280;38816;51.142;-0.974;2023-01-25T04:22:14;102200.66;;;-1.64;100.00
51439;BME280;38816;51.142;-0.974;2023-01-25T04:24:40;102193.41;;;-1.70;100.00
51439;BME280;38816;51.142;-0.974;2023-01-25T04:27:06;102205.25;;;-1.60;100.00
51439;BME280;38816;51.142;-0.974;2023-01-25T04:29:31;102184.78;;;-1.63;100.00
51439;BME280;38816;51.142;-0.974;2023-01-25T04:31:57;102192.19;;;-1.56;100.00
51439;BME280;38816;51.142;-0.974;2023-01-25T04:34:22;102189.97;;;-1.53;100.00
51439;BME280;38816;51.142;-0.974;2023-01-25T04:36:48;102178.84;;;-1.55;100.00
51439;BME280;38816;51.142;-0.974;2023-01-25T04:39:13;102191.13;;;-1.49;100.00
51439;BME280;38816;51.142;-0.974;2023-01-25T04:41:39;102189.50;;;-1.49;100.00
51439;BME280;38816;51.142;-0.974;2023-01-25T04:44:04;102180.78;;;-1.52;100.00
51439;BME280;38816;51.142;-0.974;2023-01-25T04:46:29;102186.53;;;-1.45;100.00
51439;BME280;38816;51.142;-0.974;2023-01-25T04:48:55;102181.34;;;-1.46;100.00
51439;BME280;38816;51.142;-0.974;2023-01-25T04:51:20;102176.75;;;-1.50;100.00
51439;BME280;38816;51.142;-0.974;2023-01-25T04:53:46;102187.59;;;-1.43;100.00
51439;BME280;38816;51.142;-0.974;2023-01-25T04:56:11;102199.00;;;-1.38;100.00
51439;BME280;38816;51.142;-0.974;2023-01-25T04:58:36;102200.91;;;-1.35;100.00
51439;BME280;38816;51.142;-0.974;2023-01-25T05:04:17;102195.84;;;-1.35;100.00
51439;BME280;38816;51.142;-0.974;2023-01-25T05:06:42;102182.09;;;-1.39;100.00
51439;BME280;38816;51.142;-0.974;2023-01-25T05:09:08;102187.84;;;-1.31;100.00
51439;BME280;38816;51.142;-0.974;2023-01-25T05:11:34;102188.72;;;-1.22;100.00
51439;BME280;38816;51.142;-0.974;2023-01-25T05:13:59;102180.56;;;-1.19;100.00
51439;BME280;38816;51.142;-0.974;2023-01-25T05:16:25;102175.22;;;-1.22;100.00
51439;BME280;38816;51.142;-0.974;2023-01-25T05:18:50;102178.91;;;-1.19;100.00
51439;BME280;38816;51.142;-0.974;2023-01-25T05:21:18;102161.16;;;-1.29;100.00
51439;BME280;38816;51.142;-0.974;2023-01-25T05:24:02;102179.81;;;-1.18;100.00
51439;BME280;38816;51.142;-0.974;2023-01-25T05:26:28;102166.75;;;-1.23;100.00
51439;BME280;38816;51.142;-0.974;2023-01-25T05:29:15;102182.00;;;-1.13;100.00
51439;BME280;38816;51.142;-0.974;2023-01-25T05:31:40;102183.66;;;-1.13;100.00
51439;BME280;38816;51.142;-0.974;2023-01-25T05:34:07;102172.53;;;-1.15;100.00
51439;BME280;38816;51.142;-0.974;2023-01-25T05:36:32;102185.25;;;-1.05;100.00
51439;BME280;38816;51.142;-0.974;2023-01-25T05:38:57;102175.47;;;-1.02;100.00
51439;BME280;38816;51.142;-0.974;2023-01-25T05:41:23;102171.00;;;-1.05;100.00
51439;BME280;38816;51.142;-0.974;2023-01-25T05:43:48;102172.81;;;-1.04;100.00
51439;BME280;38816;51.142;-0.974;2023-01-25T05:46:14;102173.25;;;-0.99;100.00
51439;BME280;38816;51.142;-0.974;2023-01-25T05:48:39;102163.72;;;-1.02;100.00
51439;BME280;38816;51.142;-0.974;2023-01-25T05:51:05;102168.78;;;-1.02;100.00
51439;BME280;38816;51.142;-0.974;2023-01-25T05:53:30;102160.44;;;-1.00;100.00
51439;BME280;38816;51.142;-0.974;2023-01-25T05:56:02;102168.44;;;-0.96;100.00
51439;BME280;38816;51.142;-0.974;2023-01-25T05:58:28;102158.81;;;-1.00;100.00
51439;BME280;38816;51.142;-0.974;2023-01-25T06:00:53;102164.91;;;-0.98;100.00
51439;BME280;38816;51.142;-0.974;2023-01-25T06:03:18;102167.25;;;-0.91;100.00
51439;BME280;38816;51.142;-0.974;2023-01-25T06:05:44;102172.28;;;-0.91;100.00
51439;BME280;38816;51.142;-0.974;2023-01-25T06:08:09;102158.22;;;-0.97;100.00
51439;BME280;38816;51.142;-0.974;2023-01-25T06:10:35;102157.59;;;-0.95;100.00
51439;BME280;38816;51.142;-0.974;2023-01-25T06:13:00;102168.28;;;-0.89;100.00
51439;BME280;38816;51.142;-0.974;2023-01-25T06:15:25;102158.22;;;-0.97;100.00
51439;BME280;38816;51.142;-0.974;2023-01-25T06:17:54;102156.28;;;-1.00;100.00
51439;BME280;38816;51.142;-0.974;2023-01-25T06:20:20;102171.13;;;-0.94;100.00
51439;BME280;38816;51.142;-0.974;2023-01-25T06:22:49;102144.13;;;-1.04;100.00
51439;BME280;38816;51.142;-0.974;2023-01-25T06:25:15;102143.53;;;-1.02;100.00
51439;BME280;38816;51.142;-0.974;2023-01-25T06:27:40;102145.31;;;-1.00;100.00
51439;BME280;38816;51.142;-0.974;2023-01-25T06:30:06;102153.91;;;-0.90;100.00
51439;BME280;38816;51.142;-0.974;2023-01-25T06:32:32;102140.22;;;-0.92;100.00
51439;BME280;38816;51.142;-0.974;2023-01-25T06:34:58;102142.28;;;-0.88;100.00
51439;BME280;38816;51.142;-0.974;2023-01-25T06:37:23;102144.94;;;-0.86;100.00
51439;BME280;38816;51.142;-0.974;2023-01-25T06:39:48;102133.41;;;-0.93;100.00
51439;BME280;38816;51.142;-0.974;2023-01-25T06:42:14;102131.91;;;-0.91;100.00
51439;BME280;38816;51.142;-0.974;2023-01-25T06:44:39;102142.28;;;-0.88;100.00
51439;BME280;38816;51.142;-0.974;2023-01-25T06:47:07;102127.47;;;-0.93;100.00
51439;BME280;38816;51.142;-0.974;2023-01-25T06:49:33;102138.41;;;-0.84;100.00
51439;BME280;38816;51.142;-0.974;2023-01-25T06:51:58;102127.91;;;-0.89;100.00
51439;BME280;38816;51.142;-0.974;2023-01-25T06:54:25;102137.53;;;-0.85;100.00
51439;BME280;38816;51.142;-0.974;2023-01-25T06:56:51;102122.84;;;-0.89;100.00
51439;BME280;38816;51.142;-0.974;2023-01-25T06:59:16;102122.69;;;-0.90;100.00
51439;BME280;38816;51.142;-0.974;2023-01-25T07:01:41;102138.25;;;-0.86;100.00
51439;BME280;38816;51.142;-0.974;2023-01-25T07:04:07;102122.69;;;-0.90;100.00
51439;BME280;38816;51.142;-0.974;2023-01-25T07:06:34;102131.44;;;-0.87;100.00
51439;BME280;38816;51.142;-0.974;2023-01-25T07:09:04;102108.91;;;-0.94;100.00
51439;BME280;38816;51.142;-0.974;2023-01-25T07:11:30;102135.13;;;-0.83;100.00
51439;BME280;38816;51.142;-0.974;2023-01-25T07:13:56;102130.13;;;-0.92;100.00
51439;BME280;38816;51.142;-0.974;2023-01-25T07:16:21;102116.78;;;-0.99;100.00
51439;BME280;38816;51.142;-0.974;2023-01-25T07:18:47;102127.16;;;-0.88;100.00
51439;BME280;38816;51.142;-0.974;2023-01-25T07:21:16;102128.78;;;-0.88;100.00
51439;BME280;38816;51.142;-0.974;2023-01-25T07:23:43;102134.28;;;-0.92;100.00
51439;BME280;38816;51.142;-0.974;2023-01-25T07:26:21;102137.84;;;-0.90;100.00
51439;BME280;38816;51.142;-0.974;2023-01-25T07:28:47;102118.00;;;-1.05;100.00
51439;BME280;38816;51.142;-0.974;2023-01-25T07:31:14;102119.66;;;-1.05;100.00
51439;BME280;38816;51.142;-0.974;2023-01-25T07:33:40;102126.47;;;-1.04;100.00
51439;BME280;38816;51.142;-0.974;2023-01-25T07:36:07;102118.63;;;-1.07;100.00
51439;BME280;38816;51.142;-0.974;2023-01-25T07:38:33;102109.44;;;-1.15;100.00
51439;BME280;38816;51.142;-0.974;2023-01-25T07:40:59;102123.69;;;-1.16;100.00
51439;BME280;38816;51.142;-0.974;2023-01-25T07:43:26;102116.25;;;-1.14;100.00
51439;BME280;38816;51.142;-0.974;2023-01-25T07:45:52;102126.97;;;-1.17;100.00
51439;BME280;38816;51.142;-0.974;2023-01-25T07:48:19;102114.41;;;-1.25;100.00
51439;BME280;38816;51.142;-0.974;2023-01-25T07:50:45;102110.38;;;-1.23;100.00
51439;BME280;38816;51.142;-0.974;2023-01-25T07:53:36;102121.00;;;-1.17;100.00
51439;BME280;38816;51.142;-0.974;2023-01-25T07:56:01;102120.13;;;-1.18;100.00
51439;BME280;38816;51.142;-0.974;2023-01-25T07:58:26;102118.22;;;-1.20;100.00
51439;BME280;38816;51.142;-0.974;2023-01-25T08:00:52;102114.97;;;-1.28;100.00
51439;BME280;38816;51.142;-0.974;2023-01-25T08:03:18;102108.28;;;-1.28;100.00
51439;BME280;38816;51.142;-0.974;2023-01-25T08:05:46;102100.50;;;-1.39;100.00
51439;BME280;38816;51.142;-0.974;2023-01-25T08:08:12;102100.94;;;-1.43;100.00
51439;BME280;38816;51.142;-0.974;2023-01-25T08:10:38;102093.50;;;-1.42;100.00
51439;BME280;38816;51.142;-0.974;2023-01-25T08:13:04;102092.63;;;-1.42;100.00
51439;BME280;38816;51.142;-0.974;2023-01-25T08:15:31;102097.97;;;-1.39;100.00
51439;BME280;38816;51.142;-0.974;2023-01-25T08:18:00;102081.91;;;-1.40;100.00
51439;BME280;38816;51.142;-0.974;2023-01-25T08:20:25;102078.06;;;-1.36;100.00
51439;BME280;38816;51.142;-0.974;2023-01-25T08:22:51;102089.88;;;-1.27;100.00
51439;BME280;38816;51.142;-0.974;2023-01-25T08:25:17;102080.09;;;-1.23;100.00
51439;BME280;38816;51.142;-0.974;2023-01-25T08:27:42;102071.50;;;-1.25;100.00
51439;BME280;38816;51.142;-0.974;2023-01-25T08:30:08;102076.66;;;-1.15;100.00
51439;BME280;38816;51.142;-0.974;2023-01-25T08:32:34;102074.84;;;-1.08;100.00
51439;BME280;38816;51.142;-0.974;2023-01-25T08:35:00;102063.09;;;-1.07;100.00
51439;BME280;38816;51.142;-0.974;2023-01-25T08:37:25;102047.97;;;-1.07;100.00
51439;BME280;38816;51.142;-0.974;2023-01-25T08:39:54;102051.16;;;-0.99;100.00
51439;BME280;38816;51.142;-0.974;2023-01-25T08:42:25;102055.44;;;-0.90;100.00
51439;BME280;38816;51.142;-0.974;2023-01-25T08:44:53;102050.22;;;-0.91;100.00
51439;BME280;38816;51.142;-0.974;2023-01-25T08:47:19;102058.97;;;-0.88;100.00
51439;BME280;38816;51.142;-0.974;2023-01-25T08:49:44;102049.63;;;-0.89;100.00
51439;BME280;38816;51.142;-0.974;2023-01-25T08:52:10;102062.22;;;-0.80;100.00
51439;BME280;38816;51.142;-0.974;2023-01-25T08:54:39;102059.06;;;-0.78;100.00
51439;BME280;38816;51.142;-0.974;2023-01-25T08:57:07;102061.13;;;-0.73;100.00
51439;BME280;38816;51.142;-0.974;2023-01-25T08:59:32;102053.81;;;-0.70;100.00
51439;BME280;38816;51.142;-0.974;2023-01-25T09:01:58;102032.94;;;-0.78;100.00
51439;BME280;38816;51.142;-0.974;2023-01-25T09:04:23;102043.09;;;-0.68;100.00
51439;BME280;38816;51.142;-0.974;2023-01-25T09:06:52;102048.97;;;-0.59;100.00
51439;BME280;38816;51.142;-0.974;2023-01-25T09:09:18;102046.88;;;-0.54;100.00
51439;BME280;38816;51.142;-0.974;2023-01-25T09:11:43;102041.34;;;-0.50;100.00
51439;BME280;38816;51.142;-0.974;2023-01-25T09:14:09;102044.28;;;-0.45;100.00
51439;BME280;38816;51.142;-0.974;2023-01-25T09:16:34;102044.16;;;-0.47;100.00
51439;BME280;38816;51.142;-0.974;2023-01-25T09:19:01;102021.81;;;-0.61;100.00
51439;BME280;38816;51.142;-0.974;2023-01-25T09:21:28;102041.09;;;-0.53;100.00
51439;BME280;38816;51.142;-0.974;2023-01-25T09:23:54;102024.34;;;-0.61;100.00
51439;BME280;38816;51.142;-0.974;2023-01-25T09:26:19;102022.84;;;-0.59;100.00
51439;BME280;38816;51.142;-0.974;2023-01-25T09:28:46;102027.69;;;-0.52;100.00
51439;BME280;38816;51.142;-0.974;2023-01-25T09:31:12;102002.50;;;-0.61;100.00
51439;BME280;38816;51.142;-0.974;2023-01-25T09:33:39;101995.94;;;-0.59;100.00
51439;BME280;38816;51.142;-0.974;2023-01-25T09:36:05;101999.63;;;-0.55;100.00
51439;BME280;38816;51.142;-0.974;2023-01-25T09:38:31;102000.03;;;-0.51;100.00
51439;BME280;38816;51.142;-0.974;2023-01-25T09:44:00;101996.59;;;-0.32;100.00
51439;BME280;38816;51.142;-0.974;2023-01-25T09:46:54;101996.28;;;-0.27;100.00
51439;BME280;38816;51.142;-0.974;2023-01-25T09:54:36;101967.56;;;-0.27;100.00
51439;BME280;38816;51.142;-0.974;2023-01-25T09:57:10;101958.13;;;-0.19;100.00
51439;BME280;38816;51.142;-0.974;2023-01-25T09:59:39;101962.22;;;-0.11;100.00
51439;BME280;38816;51.142;-0.974;2023-01-25T10:02:21;101965.66;;;-0.01;100.00
51439;BME280;38816;51.142;-0.974;2023-01-25T10:04:51;101951.16;;;0.07;100.00
51439;BME280;38816;51.142;-0.974;2023-01-25T10:07:24;101949.19;;;0.23;100.00
51439;BME280;38816;51.142;-0.974;2023-01-25T10:09:56;101951.53;;;0.41;100.00
51439;BME280;38816;51.142;-0.974;2023-01-25T10:12:27;101956.59;;;0.51;100.00
51439;BME280;38816;51.142;-0.974;2023-01-25T10:14:57;101957.09;;;0.57;100.00
51439;BME280;38816;51.142;-0.974;2023-01-25T10:17:31;101946.97;;;0.67;100.00
51439;BME280;38816;51.142;-0.974;2023-01-25T10:23:33;101944.69;;;0.81;100.00
51439;BME280;38816;51.142;-0.974;2023-01-25T10:25:56;101943.31;;;0.84;100.00
51439;BME280;38816;51.142;-0.974;2023-01-25T10:28:38;101930.16;;;0.78;100.00
51439;BME280;38816;51.142;-0.974;2023-01-25T10:31:13;101944.34;;;0.86;100.00
51439;BME280;38816;51.142;-0.974;2023-01-25T10:33:43;101936.34;;;0.92;100.00
51439;BME280;38816;51.142;-0.974;2023-01-25T10:36:13;101926.13;;;0.90;100.00
51439;BME280;38816;51.142;-0.974;2023-01-25T10:38:41;101934.94;;;1.06;100.00
51439;BME280;38816;51.142;-0.974;2023-01-25T10:41:20;101930.78;;;1.06;100.00
51439;BME280;38816;51.142;-0.974;2023-01-25T10:43:46;101922.03;;;1.02;100.00
51439;BME280;38816;51.142;-0.974;2023-01-25T10:46:24;101907.72;;;1.03;100.00
51439;BME280;38816;51.142;-0.974;2023-01-25T10:48:50;101914.44;;;1.13;100.00
51439;BME280;38816;51.142;-0.974;2023-01-25T10:51:36;101908.56;;;1.24;100.00
51439;BME280;38816;51.142;-0.974;2023-01-25T10:54:05;101906.81;;;1.23;100.00
51439;BME280;38816;51.142;-0.974;2023-01-25T10:56:35;101910.63;;;1.18;100.00
51439;BME280;38816;51.142;-0.974;2023-01-25T11:01:38;101889.19;;;1.24;100.00
51439;BME280;38816;51.142;-0.974;2023-01-25T11:06:51;101879.28;;;1.38;100.00
51439;BME280;38816;51.142;-0.974;2023-01-25T11:09:44;101861.63;;;1.49;100.00
51439;BME280;38816;51.142;-0.974;2023-01-25T11:12:19;101866.91;;;1.63;100.00
51439;BME280;38816;51.142;-0.974;2023-01-25T11:14:46;101865.59;;;1.68;100.00
51439;BME280;38816;51.142;-0.974;2023-01-25T11:17:22;101854.06;;;1.71;100.00
51439;BME280;38816;51.142;-0.974;2023-01-25T11:20:03;101844.03;;;1.73;100.00
51439;BME280;38816;51.142;-0.974;2023-01-25T11:22:30;101834.13;;;1.76;100.00
51439;BME280;38816;51.142;-0.974;2023-01-25T11:24:55;101827.75;;;1.81;100.00
51439;BME280;38816;51.142;-0.974;2023-01-25T11:27:23;101810.22;;;1.84;100.00
51439;BME280;38816;51.142;-0.974;2023-01-25T11:32:29;101807.22;;;2.00;100.00
51439;BME280;38816;51.142;-0.974;2023-01-25T11:34:55;101802.41;;;2.03;100.00
51439;BME280;38816;51.142;-0.974;2023-01-25T11:40:21;101815.41;;;2.08;100.00
51439;BME280;38816;51.142;-0.974;2023-01-25T11:54:27;101815.72;;;2.00;100.00
51439;BME280;38816;51.142;-0.974;2023-01-25T12:07:44;101777.00;;;2.37;100.00
51439;BME280;38816;51.142;-0.974;2023-01-25T12:10:30;101769.34;;;2.25;100.00
51439;BME280;38816;51.142;-0.974;2023-01-25T12:13:30;101765.19;;;2.25;100.00
51439;BME280;38816;51.142;-0.974;2023-01-25T12:16:23;101781.91;;;2.23;100.00
51439;BME280;38816;51.142;-0.974;2023-01-25T12:22:29;101776.78;;;2.00;100.00
51439;BME280;38816;51.142;-0.974;2023-01-25T12:25:13;101779.56;;;2.03;100.00
51439;BME280;38816;51.142;-0.974;2023-01-25T12:33:33;101765.22;;;2.03;100.00
51439;BME280;38816;51.142;-0.974;2023-01-25T12:36:10;101775.13;;;2.00;100.00
51439;BME280;38816;51.142;-0.974;2023-01-25T12:38:41;101775.03;;;1.99;100.00
51439;BME280;38816;51.142;-0.974;2023-01-25T12:41:32;101778.88;;;1.94;100.00
51439;BME280;38816;51.142;-0.974;2023-01-25T12:44:22;101788.06;;;1.82;100.00
51439;BME280;38816;51.142;-0.974;2023-01-25T12:49:40;101780.19;;;1.45;100.00
51439;BME280;38816;51.142;-0.974;2023-01-25T12:52:14;101806.75;;;1.50;100.00
51439;BME280;38816;51.142;-0.974;2023-01-25T12:54:42;101798.31;;;1.39;100.00
51439;BME280;38816;51.142;-0.974;2023-01-25T13:00:47;101794.94;;;1.29;100.00
51439;BME280;38816;51.142;-0.974;2023-01-25T13:05:57;101776.28;;;1.38;100.00
51439;BME280;38816;51.142;-0.974;2023-01-25T13:10:57;101762.31;;;1.43;100.00
51439;BME280;38816;51.142;-0.974;2023-01-25T13:13:26;101767.09;;;1.50;100.00
51439;BME280;38816;51.142;-0.974;2023-01-25T13:15:53;101769.38;;;1.47;100.00
51439;BME280;38816;51.142;-0.974;2023-01-25T13:18:34;101764.91;;;1.55;100.00
51439;BME280;38816;51.142;-0.974;2023-01-25T13:21:02;101773.75;;;1.60;100.00
51439;BME280;38816;51.142;-0.974;2023-01-25T13:28:56;101764.81;;;1.54;100.00
51439;BME280;38816;51.142;-0.974;2023-01-25T13:34:11;101747.25;;;1.45;100.00
51439;BME280;38816;51.142;-0.974;2023-01-25T13:44:42;101757.22;;;1.21;100.00
51439;BME280;38816;51.142;-0.974;2023-01-25T13:47:14;101739.84;;;1.26;100.00
51439;BME280;38816;51.142;-0.974;2023-01-25T13:49:48;101741.50;;;1.25;100.00
51439;BME280;38816;51.142;-0.974;2023-01-25T13:52:16;101742.88;;;1.32;100.00
51439;BME280;38816;51.142;-0.974;2023-01-25T13:54:44;101744.28;;;1.29;100.00
51439;BME280;38816;51.142;-0.974;2023-01-25T13:57:30;101726.81;;;1.32;100.00
51439;BME280;38816;51.142;-0.974;2023-01-25T14:00:04;101728.75;;;1.46;100.00
51439;BME280;38816;51.142;-0.974;2023-01-25T14:02:32;101737.13;;;1.45;100.00
51439;BME280;38816;51.142;-0.974;2023-01-25T14:04:59;101731.53;;;1.49;100.00
51439;BME280;38816;51.142;-0.974;2023-01-25T14:07:32;101711.34;;;1.50;100.00
51439;BME280;38816;51.142;-0.974;2023-01-25T14:10:07;101716.31;;;1.49;100.00
51439;BME280;38816;51.142;-0.974;2023-01-25T14:12:41;101715.06;;;1.44;100.00
51439;BME280;38816;51.142;-0.974;2023-01-25T14:17:42;101698.63;;;1.39;100.00